Naches, WA (98937)

12:22 AM PDT on May 29, 2017 (GMT -0700)
MGRLW1 | | Change Station
Active Advisory: Flood Watch Active Notice: Flood Watch

Elev 5917 ft 46.55 °N, 121.17 °W | Updated 27 days ago

Clear
Clear
33.0 °F
Feels Like 33.0 °F
N
-
Wind Variable Wind from North

Today
High -- | Low -- °F
--% Chance of Precip.
Yesterday
High -- | Low -- °F
Precip. -- in
Pressure 30.02 in
Visibility 10.0 miles
Clouds Clear
Dew Point Not available.
Humidity Not available.
Rainfall 0.00 in
Snow Depth Not available.
5:14 AM 8:46 PM
Waxing Crescent, 17% visible
METAR K1YT 290658Z AUTO 00000KT 10SM CLR 17/05 A3002 RMK AO2 SLPNO T01690054 $
Pressure 30.02 in
Visibility 10.0 miles
Clouds Clear
Dew Point Not available.
Humidity Not available.
Rainfall 0.00 in
Snow Depth Not available.
5:14 AM 8:46 PM
Waxing Crescent, 17% visible
METAR K1YT 290658Z AUTO 00000KT 10SM CLR 17/05 A3002 RMK AO2 SLPNO T01690054 $

Get Your Daily Forecast Email!

Thanks for signing up!

Be on the lookout for a verification email in your inbox.

You'll start receiving severe weather alerts in your inbox..

×

10-Day Weather Forecast

Almanac

Astronomy

May. 29, 2017 Rise Set
Actual Time
Civil Twilight
Nautical Twilight
Astronomical Twilight
Moon
Length of Visible Light
Length of Day
Tomorrow will be .
, % of the Moon is Illuminated

Today's Extremes

State Highs State Lows

Community

WunderPhotos

Category 6

Welcome to Category 6. This is the collective home for Weather Underground's featured writeups by Dr. Jeff Masters (right), Bob Henson (left), Chris Burt, and other regular contributors.

Nearby

Air Quality

  Air Quality AQ Index Pollutant
Not available.

Snow Depth

Station Depth Elevation

Earthquake Activity

City Distance Mag. Time & Date
Minimum magnitude displayed is 2.5.

Coastal Water Temperatures

Place Temperature

Stations

Nearby Weather Stations

Station Location Temp. Windchill Dew Point Humidity Wind Precip. Elev Updated Type
                   

Watches & Warnings

Flood Watch
Issued: 6:55 PM PDT May. 28, 2017 – National Weather Service

The Flood Watch continues for
the Naches River near Naches
* from Monday evening to late Friday night.
* At 5:15 PM Sunday the stage was 17.3 feet.
* Minor flooding is possible.
* Flood stage is 17.8 feet.
* Forecast... flood stage may be reached by tomorrow late evening.
* The river is forecast to reach a maximum stage of 18.2 feet by
Wednesday before midnight.


Lat... Lon 4675 12069 4668 12060 4665 12053 4661 12052 4663 12065 4670
12072